Time;durP1;ratioP1;P1;durP2;ratioP2;P2;SDS_P1;SDS_P2;PMS_P1;PMS_P2;Temp;Humidity;BMP_temperature;BMP_pressure;BME280_temperature;BME280_humidity;BME280_pressure;Samples;Min_cycle;Max_cycle;Signal;HPM_P1;HPM_P2
2022/12/30 00:05:21;;;;;;;4.85;2.10;;;6.30;99.90;;;;;;20868423;28;20060;-41
2022/12/30 00:36:01;;;;;;;4.72;1.73;;;6.20;99.90;;;;;;20876312;28;20910;-40
2022/12/30 00:46:02;;;;;;;7.43;1.23;;;6.10;99.90;;;;;;20885244;28;20087;-41
2022/12/30 00:56:09;;;;;;;2.65;1.45;;;6.10;99.90;;;;;;20874503;28;20036;-41
2022/12/30 01:06:11;;;;;;;4.00;1.52;;;6.10;99.90;;;;;;20870639;28;20037;-41
2022/12/30 01:16:15;;;;;;;5.20;1.30;;;6.30;99.90;;;;;;20874458;28;20114;-41
2022/12/30 01:26:15;;;;;;;5.07;1.20;;;6.30;99.90;;;;;;20872263;28;20087;-41
2022/12/30 01:36:16;;;;;;;2.17;1.08;;;6.20;99.90;;;;;;20878927;28;20153;-41
2022/12/30 01:46:29;;;;;;;3.80;1.05;;;6.30;99.90;;;;;;20873792;28;20029;-41
2022/12/30 01:56:34;;;;;;;3.38;1.55;;;6.20;99.90;;;;;;20878763;28;20032;-41
2022/12/30 02:06:44;;;;;;;4.38;1.80;;;6.30;99.90;;;;;;20876224;28;20044;-41
2022/12/30 02:17:26;;;;;;;5.05;1.52;;;6.20;99.90;;;;;;20884631;28;20716;-41
2022/12/30 02:28:00;;;;;;;5.82;1.77;;;6.30;99.90;;;;;;20767173;28;21881;-41
2022/12/30 02:38:07;;;;;;;3.83;1.52;;;6.30;99.90;;;;;;20891106;28;20864;-41
2022/12/30 02:48:11;;;;;;;6.03;1.43;;;6.30;99.90;;;;;;20881756;28;20507;-41
2022/12/30 02:58:12;;;;;;;2.00;1.27;;;6.20;99.90;;;;;;20897784;28;20638;-41
2022/12/30 03:08:41;;;;;;;3.63;1.20;;;6.20;99.90;;;;;;20888039;28;20036;-41
2022/12/30 03:18:45;;;;;;;5.05;2.30;;;6.10;99.90;;;;;;20891605;28;20829;-41
2022/12/30 03:28:49;;;;;;;5.80;1.55;;;6.00;99.90;;;;;;20880609;28;20798;-41
2022/12/30 03:38:59;;;;;;;4.15;1.73;;;6.10;99.90;;;;;;20874713;28;20087;-41
2022/12/30 03:49:00;;;;;;;5.45;2.17;;;6.10;99.90;;;;;;20877744;28;20099;-41
2022/12/30 03:59:01;;;;;;;4.43;2.08;;;6.00;99.90;;;;;;20874511;28;20538;-41
2022/12/30 04:09:02;;;;;;;4.35;1.83;;;6.00;99.90;;;;;;20875435;28;20404;-41
2022/12/30 04:19:03;;;;;;;4.20;1.85;;;6.00;99.90;;;;;;20879130;28;20045;-41
2022/12/30 04:29:04;;;;;;;11.50;2.22;;;6.00;99.90;;;;;;20880323;28;20494;-41
2022/12/30 04:39:05;;;;;;;4.88;1.65;;;5.90;99.90;;;;;;20869608;28;20072;-41
2022/12/30 04:49:06;;;;;;;6.60;1.40;;;5.90;99.90;;;;;;20872755;28;20036;-43
2022/12/30 04:59:07;;;;;;;3.67;1.23;;;5.60;99.90;;;;;;20869449;28;20048;-41
2022/12/30 05:09:09;;;;;;;6.38;1.75;;;5.60;99.90;;;;;;20869395;28;20029;-41
2022/12/30 05:19:10;;;;;;;7.63;3.03;;;5.50;99.90;;;;;;20866043;28;20072;-41
2022/12/30 05:29:11;;;;;;;10.23;2.28;;;5.40;99.90;;;;;;20865610;28;20057;-43
2022/12/30 05:39:12;;;;;;;4.65;1.92;;;5.30;99.90;;;;;;20874023;28;20084;-43
2022/12/30 05:49:13;;;;;;;6.45;1.85;;;5.30;99.90;;;;;;20872570;28;20495;-43
2022/12/30 05:59:14;;;;;;;6.78;1.80;;;5.30;99.90;;;;;;20874249;28;20503;-43
2022/12/30 06:09:15;;;;;;;3.80;1.77;;;5.30;99.90;;;;;;20866268;28;20130;-43
2022/12/30 06:19:16;;;;;;;10.85;2.30;;;5.30;99.90;;;;;;20864770;28;20179;-43
2022/12/30 06:29:17;;;;;;;10.68;3.03;;;5.20;99.90;;;;;;20860509;28;20636;-43
2022/12/30 06:39:18;;;;;;;2.15;1.20;;;5.20;99.90;;;;;;20856328;28;20122;-43
2022/12/30 06:49:19;;;;;;;5.88;2.28;;;5.20;99.90;;;;;;20861651;28;20036;-43
2022/12/30 06:59:20;;;;;;;3.05;1.80;;;5.30;99.90;;;;;;20875389;28;20051;-43
2022/12/30 07:09:21;;;;;;;6.60;2.38;;;5.30;99.90;;;;;;20885675;28;20173;-43
2022/12/30 07:19:22;;;;;;;6.78;1.73;;;5.40;99.90;;;;;;20872356;28;20041;-43
2022/12/30 07:29:23;;;;;;;6.00;1.90;;;5.40;99.90;;;;;;20876719;28;20040;-43
2022/12/30 07:39:24;;;;;;;5.50;2.05;;;5.40;99.90;;;;;;20862505;28;20047;-43
2022/12/30 07:49:25;;;;;;;2.88;1.58;;;5.40;99.90;;;;;;20866772;28;20922;-43
2022/12/30 07:59:26;;;;;;;6.68;2.40;;;5.40;99.90;;;;;;20870832;28;20045;-43
2022/12/30 08:09:27;;;;;;;7.30;1.92;;;5.40;99.90;;;;;;20866626;28;20037;-43
2022/12/30 08:19:29;;;;;;;3.88;2.05;;;5.60;99.90;;;;;;20869793;28;20052;-43
2022/12/30 08:29:30;;;;;;;6.32;2.20;;;5.60;99.90;;;;;;20881634;28;20044;-43
2022/12/30 08:39:31;;;;;;;5.28;1.60;;;5.70;99.90;;;;;;20853587;28;20083;-43
2022/12/30 08:49:32;;;;;;;4.68;1.95;;;5.80;99.90;;;;;;20863229;28;20352;-43
2022/12/30 08:59:33;;;;;;;3.50;0.90;;;5.90;99.90;;;;;;20827824;28;21188;-43
2022/12/30 09:09:36;;;;;;;5.03;1.58;;;6.10;99.90;;;;;;20789022;28;20150;-44
2022/12/30 09:19:37;;;;;;;6.15;1.77;;;6.30;99.90;;;;;;20831592;28;20120;-41
2022/12/30 09:29:38;;;;;;;3.33;1.30;;;6.50;99.90;;;;;;20834410;28;20072;-43
2022/12/30 09:39:39;;;;;;;4.05;0.77;;;6.60;99.90;;;;;;20844391;28;20412;-43
2022/12/30 09:49:47;;;;;;;4.53;1.10;;;6.80;99.90;;;;;;20851822;28;20420;-44
2022/12/30 09:59:54;;;;;;;2.93;1.03;;;7.00;99.90;;;;;;20844227;28;20945;-43
2022/12/30 10:10:32;;;;;;;1.47;0.90;;;7.10;99.90;;;;;;20837308;28;20178;-43
2022/12/30 10:20:44;;;;;;;2.08;1.08;;;7.20;99.90;;;;;;20866934;28;21071;-41
2022/12/30 10:30:47;;;;;;;4.03;1.33;;;7.30;99.90;;;;;;20865092;28;20033;-43
2022/12/30 10:41:21;;;;;;;3.05;1.50;;;7.50;99.90;;;;;;20869637;28;21276;-41
2022/12/30 10:51:24;;;;;;;1.90;0.80;;;7.60;99.90;;;;;;20886466;28;20725;-41
2022/12/30 11:01:32;;;;;;;1.67;0.52;;;7.70;99.90;;;;;;20895073;28;20116;-43
2022/12/30 11:22:17;;;;;;;1.08;0.50;;;7.90;99.90;;;;;;20885458;28;20906;-41
2022/12/30 11:32:18;;;;;;;2.38;1.00;;;8.00;99.90;;;;;;20888608;28;21581;-41
2022/12/30 11:42:29;;;;;;;5.78;1.48;;;8.10;99.90;;;;;;20881671;28;20041;-41
2022/12/30 11:52:30;;;;;;;1.52;0.50;;;8.20;99.90;;;;;;20894338;28;20040;-41
2022/12/30 12:02:37;;;;;;;2.03;1.10;;;8.40;99.90;;;;;;20890131;28;20044;-41
2022/12/30 12:12:46;;;;;;;;;;;8.60;99.90;;;;;;20883610;28;20048;-41
2022/12/30 12:23:18;;;;;;;2.05;0.85;;;8.70;99.90;;;;;;20877032;28;21739;-41
2022/12/30 12:33:39;;;;;;;3.63;1.45;;;8.60;99.90;;;;;;20866549;28;20723;-41
2022/12/30 12:44:09;;;;;;;5.03;1.13;;;8.60;99.90;;;;;;20869939;28;20447;-40
2022/12/30 12:54:13;;;;;;;5.15;0.93;;;8.70;99.90;;;;;;20870052;28;21341;-40
2022/12/30 13:04:39;;;;;;;5.85;0.82;;;8.60;99.90;;;;;;20867615;28;20036;-40
2022/12/30 13:14:48;;;;;;;1.52;0.73;;;8.70;99.90;;;;;;20868129;28;20641;-40
2022/12/30 13:24:53;;;;;;;2.38;0.60;;;8.60;99.90;;;;;;20823263;28;20941;-39
2022/12/30 13:35:18;;;;;;;9.73;1.60;;;8.50;99.90;;;;;;20841539;28;20071;-39
2022/12/30 13:45:29;;;;;;;3.55;1.20;;;8.50;99.90;;;;;;20845165;28;20281;-42
2022/12/30 13:55:36;;;;;;;4.05;0.90;;;8.50;99.90;;;;;;20845019;28;21427;-39
2022/12/30 14:05:37;;;;;;;4.80;1.37;;;8.50;99.90;;;;;;20846051;28;20131;-39
2022/12/30 14:15:41;;;;;;;0.82;0.20;;;8.70;99.90;;;;;;20866404;28;20052;-39
2022/12/30 14:25:42;;;;;;;2.60;0.73;;;8.70;99.90;;;;;;20888758;28;20137;-39
2022/12/30 14:35:49;;;;;;;2.25;1.15;;;8.60;99.90;;;;;;20895611;28;20060;-39
2022/12/30 14:45:50;;;;;;;1.75;0.75;;;8.60;99.90;;;;;;20892971;28;20287;-39
2022/12/30 14:55:51;;;;;;;1.58;0.88;;;8.70;99.90;;;;;;20887526;28;20036;-39
2022/12/30 15:05:59;;;;;;;0.60;0.38;;;8.70;99.90;;;;;;20897961;28;20037;-39
2022/12/30 15:16:08;;;;;;;0.60;0.30;;;8.80;99.90;;;;;;20887417;28;20048;-39
2022/12/30 15:26:15;;;;;;;1.80;0.68;;;8.80;99.90;;;;;;20884516;28;20040;-38
2022/12/30 15:36:16;;;;;;;1.80;1.02;;;9.00;99.90;;;;;;20884728;28;20182;-39
2022/12/30 15:46:28;;;;;;;2.13;0.93;;;9.10;99.90;;;;;;20871835;28;20095;-38
2022/12/30 15:56:32;;;;;;;2.45;1.30;;;9.20;99.90;;;;;;20883392;28;20879;-39
2022/12/30 16:06:33;;;;;;;1.75;1.05;;;9.30;99.90;;;;;;20882910;28;20104;-38
2022/12/30 16:16:35;;;;;;;2.58;1.10;;;9.50;99.90;;;;;;20851091;28;20108;-38
2022/12/30 16:26:36;;;;;;;5.55;1.80;;;9.70;99.90;;;;;;20864745;28;20063;-41
2022/12/30 16:36:37;;;;;;;4.35;2.78;;;9.90;99.90;;;;;;20845749;28;20544;-41
2022/12/30 16:46:38;;;;;;;4.15;2.40;;;10.20;99.90;;;;;;20881409;28;20369;-41
2022/12/30 16:56:39;;;;;;;3.80;2.25;;;10.40;99.90;;;;;;20882985;28;20094;-41
2022/12/30 17:06:40;;;;;;;2.92;1.83;;;10.70;99.90;;;;;;20892261;28;20036;-41
2022/12/30 17:16:41;;;;;;;4.20;1.88;;;10.90;99.90;;;;;;20888941;28;20037;-41
2022/12/30 17:26:44;;;;;;;5.88;1.92;;;11.20;99.90;;;;;;20880467;28;20037;-41
2022/12/30 17:36:46;;;;;;;4.53;1.70;;;11.40;99.90;;;;;;20875152;28;21108;-41
2022/12/30 17:46:47;;;;;;;2.53;1.27;;;11.50;99.90;;;;;;20891965;28;20029;-41
2022/12/30 17:56:48;;;;;;;4.18;1.92;;;11.60;99.90;;;;;;20878063;28;20037;-41
2022/12/30 18:06:49;;;;;;;3.08;1.13;;;11.70;99.90;;;;;;20876236;28;20029;-41
2022/12/30 18:16:50;;;;;;;2.78;1.33;;;11.80;99.90;;;;;;20882719;28;20029;-41
2022/12/30 18:26:53;;;;;;;5.05;1.95;;;11.90;99.90;;;;;;20876091;28;20025;-41
2022/12/30 18:36:54;;;;;;;2.63;1.10;;;12.10;99.90;;;;;;20876291;28;20550;-41
2022/12/30 18:46:55;;;;;;;6.90;2.55;;;12.10;99.90;;;;;;20891040;28;20037;-41
2022/12/30 18:56:56;;;;;;;5.32;1.55;;;12.30;99.90;;;;;;20899022;28;20480;-41
2022/12/30 19:06:57;;;;;;;5.43;2.80;;;12.30;99.90;;;;;;20899659;28;20041;-41
2022/12/30 19:16:58;;;;;;;2.15;1.27;;;12.30;99.90;;;;;;20887814;28;20048;-42
2022/12/30 19:26:59;;;;;;;7.53;1.67;;;12.30;99.90;;;;;;20886383;28;20091;-42
2022/12/30 19:37:00;;;;;;;4.38;1.38;;;12.40;99.90;;;;;;20889563;28;20040;-42
2022/12/30 19:47:01;;;;;;;7.95;1.65;;;12.40;99.90;;;;;;20900087;28;20488;-41
2022/12/30 19:57:03;;;;;;;6.68;1.45;;;12.60;99.90;;;;;;20901158;28;20052;-42
2022/12/30 20:07:04;;;;;;;8.23;3.22;;;12.60;99.90;;;;;;20903306;28;20151;-42
2022/12/30 20:17:05;;;;;;;7.50;1.77;;;12.40;99.90;;;;;;20911950;28;20055;-42
2022/12/30 20:27:06;;;;;;;5.10;1.30;;;12.50;99.90;;;;;;20891873;28;20043;-42
2022/12/30 20:37:09;;;;;;;3.53;1.15;;;12.50;99.90;;;;;;20895129;28;20044;-42
2022/12/30 20:47:10;;;;;;;3.83;1.23;;;12.50;99.90;;;;;;20890900;28;20725;-42
2022/12/30 20:57:11;;;;;;;5.43;1.02;;;12.50;99.90;;;;;;20894180;28;20616;-42
2022/12/30 21:07:13;;;;;;;1.85;0.82;;;12.60;99.90;;;;;;20882941;28;20474;-42
2022/12/30 21:17:16;;;;;;;2.63;0.90;;;12.50;99.90;;;;;;20877831;28;20087;-42
2022/12/30 21:27:17;;;;;;;11.80;4.90;;;12.50;99.90;;;;;;20881953;28;20037;-42
2022/12/30 21:37:18;;;;;;;2.35;1.10;;;12.50;99.90;;;;;;20878271;28;20531;-42
2022/12/30 22:08:16;;;;;;;4.00;1.63;;;12.30;99.90;;;;;;20891382;28;20033;-42
2022/12/30 22:18:18;;;;;;;1.63;0.75;;;12.20;99.90;;;;;;20891923;28;20455;-42
2022/12/30 22:28:20;;;;;;;2.00;0.90;;;12.20;99.90;;;;;;20902554;28;20104;-42
2022/12/30 22:38:21;;;;;;;9.05;2.10;;;12.10;99.90;;;;;;20909819;28;20634;-41
2022/12/30 22:48:22;;;;;;;3.00;1.02;;;12.00;99.90;;;;;;20883252;28;20080;-41
2022/12/30 22:58:23;;;;;;;3.88;1.50;;;11.90;99.90;;;;;;20880052;28;20052;-41
2022/12/30 23:08:24;;;;;;;7.25;1.42;;;11.90;99.90;;;;;;20873294;28;20099;-41
2022/12/30 23:18:25;;;;;;;4.18;0.90;;;11.90;99.90;;;;;;20884582;28;20305;-42
2022/12/30 23:28:26;;;;;;;2.33;1.00;;;11.80;99.90;;;;;;20888244;28;20037;-41
2022/12/30 23:38:27;;;;;;;3.70;1.08;;;11.90;99.90;;;;;;20886776;28;20115;-41
2022/12/30 23:48:30;;;;;;;1.83;0.70;;;11.80;99.90;;;;;;20874842;28;20094;-41
2022/12/30 23:58:31;;;;;;;1.00;0.43;;;11.80;99.90;;;;;;20875234;28;20060;-41
